sensor_id;sensor_type;location;lat;lon;timestamp;temperature;humidity
71672;DHT22;67659;45.554;11.812;2023-05-02T00:00:13;22.10;72.70
71672;DHT22;67659;45.554;11.812;2023-05-02T00:02:39;22.20;73.00
71672;DHT22;67659;45.554;11.812;2023-05-02T00:05:06;22.20;72.70
71672;DHT22;67659;45.554;11.812;2023-05-02T00:07:32;22.10;72.80
71672;DHT22;67659;45.554;11.812;2023-05-02T00:09:58;22.10;72.70
71672;DHT22;67659;45.554;11.812;2023-05-02T00:12:27;22.10;72.70
71672;DHT22;67659;45.554;11.812;2023-05-02T00:14:53;22.00;72.80
71672;DHT22;67659;45.554;11.812;2023-05-02T00:17:19;22.10;72.90
71672;DHT22;67659;45.554;11.812;2023-05-02T00:19:45;22.10;72.90
71672;DHT22;67659;45.554;11.812;2023-05-02T00:22:11;22.10;72.80
71672;DHT22;67659;45.554;11.812;2023-05-02T00:24:37;22.20;72.80
71672;DHT22;67659;45.554;11.812;2023-05-02T00:27:03;22.10;72.70
71672;DHT22;67659;45.554;11.812;2023-05-02T00:29:30;22.00;72.90
71672;DHT22;67659;45.554;11.812;2023-05-02T00:31:56;22.10;72.70
71672;DHT22;67659;45.554;11.812;2023-05-02T00:34:28;22.10;72.70
71672;DHT22;67659;45.554;11.812;2023-05-02T00:36:54;22.00;72.80
71672;DHT22;67659;45.554;11.812;2023-05-02T00:39:19;22.10;72.90
71672;DHT22;67659;45.554;11.812;2023-05-02T00:41:45;22.10;72.80
71672;DHT22;67659;45.554;11.812;2023-05-02T00:44:11;22.10;73.00
71672;DHT22;67659;45.554;11.812;2023-05-02T00:46:37;22.10;72.80
71672;DHT22;67659;45.554;11.812;2023-05-02T00:49:03;22.10;72.70
71672;DHT22;67659;45.554;11.812;2023-05-02T00:51:29;22.10;72.60
71672;DHT22;67659;45.554;11.812;2023-05-02T00:53:55;22.10;72.70
71672;DHT22;67659;45.554;11.812;2023-05-02T00:56:22;22.10;72.70
71672;DHT22;67659;45.554;11.812;2023-05-02T00:58:48;22.10;73.00
71672;DHT22;67659;45.554;11.812;2023-05-02T01:12:27;22.00;72.80
71672;DHT22;67659;45.554;11.812;2023-05-02T01:14:55;22.10;72.80
71672;DHT22;67659;45.554;11.812;2023-05-02T01:17:26;22.10;72.80
71672;DHT22;67659;45.554;11.812;2023-05-02T01:19:57;22.00;73.00
71672;DHT22;67659;45.554;11.812;2023-05-02T01:22:26;22.10;73.00
71672;DHT22;67659;45.554;11.812;2023-05-02T01:25:06;22.10;72.80
71672;DHT22;67659;45.554;11.812;2023-05-02T01:28:04;22.10;73.00
71672;DHT22;67659;45.554;11.812;2023-05-02T01:30:32;22.10;72.70
71672;DHT22;67659;45.554;11.812;2023-05-02T01:33:00;22.10;72.90
71672;DHT22;67659;45.554;11.812;2023-05-02T01:35:27;22.00;72.60
71672;DHT22;67659;45.554;11.812;2023-05-02T01:37:56;22.00;72.70
71672;DHT22;67659;45.554;11.812;2023-05-02T01:40:23;22.00;73.00
71672;DHT22;67659;45.554;11.812;2023-05-02T01:42:52;22.10;72.80
71672;DHT22;67659;45.554;11.812;2023-05-02T01:45:20;22.10;72.70
71672;DHT22;67659;45.554;11.812;2023-05-02T01:47:46;22.10;72.80
71672;DHT22;67659;45.554;11.812;2023-05-02T01:50:18;22.10;72.80
71672;DHT22;67659;45.554;11.812;2023-05-02T01:52:48;22.10;72.70
71672;DHT22;67659;45.554;11.812;2023-05-02T01:55:14;22.10;73.00
71672;DHT22;67659;45.554;11.812;2023-05-02T01:57:45;22.10;72.90
71672;DHT22;67659;45.554;11.812;2023-05-02T02:00:12;22.00;72.90
71672;DHT22;67659;45.554;11.812;2023-05-02T02:02:40;22.00;72.90
71672;DHT22;67659;45.554;11.812;2023-05-02T02:05:07;22.10;72.80
71672;DHT22;67659;45.554;11.812;2023-05-02T02:07:34;22.00;72.80
71672;DHT22;67659;45.554;11.812;2023-05-02T02:10:00;22.10;72.70
71672;DHT22;67659;45.554;11.812;2023-05-02T02:12:34;22.00;72.90
71672;DHT22;67659;45.554;11.812;2023-05-02T02:15:08;22.10;72.70
71672;DHT22;67659;45.554;11.812;2023-05-02T02:17:42;22.00;72.70
71672;DHT22;67659;45.554;11.812;2023-05-02T02:20:10;22.10;72.90
71672;DHT22;67659;45.554;11.812;2023-05-02T02:22:38;22.10;72.90
71672;DHT22;67659;45.554;11.812;2023-05-02T02:25:07;22.00;73.10
71672;DHT22;67659;45.554;11.812;2023-05-02T02:27:36;21.90;72.90
71672;DHT22;67659;45.554;11.812;2023-05-02T02:30:03;22.00;72.90
71672;DHT22;67659;45.554;11.812;2023-05-02T02:32:29;22.10;72.70
71672;DHT22;67659;45.554;11.812;2023-05-02T02:34:55;22.10;72.90
71672;DHT22;67659;45.554;11.812;2023-05-02T02:37:32;22.00;72.80
71672;DHT22;67659;45.554;11.812;2023-05-02T02:40:19;22.00;73.00
71672;DHT22;67659;45.554;11.812;2023-05-02T02:45:38;22.00;72.70
71672;DHT22;67659;45.554;11.812;2023-05-02T02:48:24;22.00;72.80
71672;DHT22;67659;45.554;11.812;2023-05-02T02:51:12;22.00;72.90
71672;DHT22;67659;45.554;11.812;2023-05-02T02:56:39;22.10;72.90
71672;DHT22;67659;45.554;11.812;2023-05-02T02:59:13;22.10;72.80
71672;DHT22;67659;45.554;11.812;2023-05-02T03:01:43;22.00;72.70
71672;DHT22;67659;45.554;11.812;2023-05-02T03:04:12;22.00;72.90
71672;DHT22;67659;45.554;11.812;2023-05-02T03:06:40;22.00;72.80
71672;DHT22;67659;45.554;11.812;2023-05-02T03:09:14;22.00;73.00
71672;DHT22;67659;45.554;11.812;2023-05-02T03:11:43;22.00;72.80
71672;DHT22;67659;45.554;11.812;2023-05-02T03:14:11;22.00;72.80
71672;DHT22;67659;45.554;11.812;2023-05-02T03:16:39;22.00;72.70
71672;DHT22;67659;45.554;11.812;2023-05-02T03:19:06;22.00;72.80
71672;DHT22;67659;45.554;11.812;2023-05-02T03:21:33;22.00;72.90
71672;DHT22;67659;45.554;11.812;2023-05-02T03:24:01;22.00;72.90
71672;DHT22;67659;45.554;11.812;2023-05-02T03:26:27;22.10;72.80
71672;DHT22;67659;45.554;11.812;2023-05-02T03:28:54;21.90;72.90
71672;DHT22;67659;45.554;11.812;2023-05-02T03:31:20;22.00;72.80
71672;DHT22;67659;45.554;11.812;2023-05-02T03:33:46;22.10;72.70
71672;DHT22;67659;45.554;11.812;2023-05-02T03:36:12;22.00;72.70
71672;DHT22;67659;45.554;11.812;2023-05-02T03:38:38;22.10;72.80
71672;DHT22;67659;45.554;11.812;2023-05-02T03:41:04;22.00;72.70
71672;DHT22;67659;45.554;11.812;2023-05-02T03:43:30;22.00;72.70
71672;DHT22;67659;45.554;11.812;2023-05-02T03:46:03;22.00;72.70
71672;DHT22;67659;45.554;11.812;2023-05-02T03:48:29;22.00;72.90
71672;DHT22;67659;45.554;11.812;2023-05-02T03:50:55;21.90;72.60
71672;DHT22;67659;45.554;11.812;2023-05-02T03:53:21;21.90;72.70
71672;DHT22;67659;45.554;11.812;2023-05-02T03:55:47;22.00;73.00
71672;DHT22;67659;45.554;11.812;2023-05-02T03:58:13;22.00;72.70
71672;DHT22;67659;45.554;11.812;2023-05-02T04:00:39;22.00;72.80
71672;DHT22;67659;45.554;11.812;2023-05-02T04:03:05;22.00;72.80
71672;DHT22;67659;45.554;11.812;2023-05-02T04:05:31;22.00;72.80
71672;DHT22;67659;45.554;11.812;2023-05-02T04:07:57;22.00;72.80
71672;DHT22;67659;45.554;11.812;2023-05-02T04:10:23;22.00;72.80
71672;DHT22;67659;45.554;11.812;2023-05-02T04:12:49;22.00;72.80
71672;DHT22;67659;45.554;11.812;2023-05-02T04:15:15;21.90;73.00
71672;DHT22;67659;45.554;11.812;2023-05-02T04:17:41;22.00;72.80
71672;DHT22;67659;45.554;11.812;2023-05-02T04:20:07;22.00;73.00
71672;DHT22;67659;45.554;11.812;2023-05-02T04:22:33;21.90;72.80
71672;DHT22;67659;45.554;11.812;2023-05-02T04:24:59;21.90;72.80
71672;DHT22;67659;45.554;11.812;2023-05-02T04:27:25;22.00;73.10
71672;DHT22;67659;45.554;11.812;2023-05-02T04:29:51;21.90;72.90
71672;DHT22;67659;45.554;11.812;2023-05-02T04:32:18;22.00;72.90
71672;DHT22;67659;45.554;11.812;2023-05-02T04:34:44;22.00;72.90
71672;DHT22;67659;45.554;11.812;2023-05-02T04:37:10;22.00;72.90
71672;DHT22;67659;45.554;11.812;2023-05-02T04:39:36;21.90;72.80
71672;DHT22;67659;45.554;11.812;2023-05-02T04:42:02;21.90;73.00
71672;DHT22;67659;45.554;11.812;2023-05-02T04:44:28;22.00;72.70
71672;DHT22;67659;45.554;11.812;2023-05-02T04:46:53;21.90;73.00
71672;DHT22;67659;45.554;11.812;2023-05-02T04:49:19;22.00;72.80
71672;DHT22;67659;45.554;11.812;2023-05-02T04:51:45;22.00;73.00
71672;DHT22;67659;45.554;11.812;2023-05-02T04:54:11;22.00;72.70
71672;DHT22;67659;45.554;11.812;2023-05-02T04:56:37;22.00;73.00
71672;DHT22;67659;45.554;11.812;2023-05-02T04:59:03;21.90;72.70
71672;DHT22;67659;45.554;11.812;2023-05-02T05:01:29;21.90;72.70
71672;DHT22;67659;45.554;11.812;2023-05-02T05:03:55;21.90;73.00
71672;DHT22;67659;45.554;11.812;2023-05-02T05:06:21;22.00;72.80
71672;DHT22;67659;45.554;11.812;2023-05-02T05:08:47;22.00;73.00
71672;DHT22;67659;45.554;11.812;2023-05-02T05:11:13;22.00;72.80
71672;DHT22;67659;45.554;11.812;2023-05-02T05:13:40;21.90;73.10
71672;DHT22;67659;45.554;11.812;2023-05-02T05:16:07;21.90;73.00
71672;DHT22;67659;45.554;11.812;2023-05-02T05:18:33;22.00;72.70
71672;DHT22;67659;45.554;11.812;2023-05-02T05:21:06;22.00;72.70
71672;DHT22;67659;45.554;11.812;2023-05-02T05:23:33;22.00;72.90
71672;DHT22;67659;45.554;11.812;2023-05-02T05:26:08;21.90;72.80
71672;DHT22;67659;45.554;11.812;2023-05-02T05:28:34;21.90;72.70
71672;DHT22;67659;45.554;11.812;2023-05-02T05:31:05;22.00;72.80
71672;DHT22;67659;45.554;11.812;2023-05-02T05:33:32;21.90;72.70
71672;DHT22;67659;45.554;11.812;2023-05-02T05:36:03;22.00;72.80
71672;DHT22;67659;45.554;11.812;2023-05-02T05:38:29;21.90;73.00
71672;DHT22;67659;45.554;11.812;2023-05-02T05:40:55;22.00;72.80
71672;DHT22;67659;45.554;11.812;2023-05-02T05:43:21;21.90;72.90
71672;DHT22;67659;45.554;11.812;2023-05-02T05:45:48;21.90;72.70
71672;DHT22;67659;45.554;11.812;2023-05-02T05:48:16;21.90;72.80
71672;DHT22;67659;45.554;11.812;2023-05-02T05:50:42;21.90;73.10
71672;DHT22;67659;45.554;11.812;2023-05-02T05:53:08;21.90;72.80
71672;DHT22;67659;45.554;11.812;2023-05-02T05:55:34;21.90;72.70
71672;DHT22;67659;45.554;11.812;2023-05-02T05:58:00;22.00;72.90
71672;DHT22;67659;45.554;11.812;2023-05-02T06:00:25;21.90;72.90
71672;DHT22;67659;45.554;11.812;2023-05-02T06:02:51;21.90;72.90
71672;DHT22;67659;45.554;11.812;2023-05-02T06:05:17;21.90;73.00
71672;DHT22;67659;45.554;11.812;2023-05-02T06:07:43;21.90;72.80
71672;DHT22;67659;45.554;11.812;2023-05-02T06:10:09;22.00;72.90
71672;DHT22;67659;45.554;11.812;2023-05-02T06:12:35;21.90;72.70
71672;DHT22;67659;45.554;11.812;2023-05-02T06:15:01;21.90;72.90
71672;DHT22;67659;45.554;11.812;2023-05-02T06:17:27;22.00;72.60
71672;DHT22;67659;45.554;11.812;2023-05-02T06:19:52;21.90;72.70
71672;DHT22;67659;45.554;11.812;2023-05-02T06:22:18;21.90;73.00
71672;DHT22;67659;45.554;11.812;2023-05-02T06:24:44;22.00;72.80
71672;DHT22;67659;45.554;11.812;2023-05-02T06:27:10;22.00;72.90
71672;DHT22;67659;45.554;11.812;2023-05-02T06:29:35;21.90;72.60
71672;DHT22;67659;45.554;11.812;2023-05-02T06:32:01;21.90;72.90
71672;DHT22;67659;45.554;11.812;2023-05-02T06:34:31;21.90;73.00
71672;DHT22;67659;45.554;11.812;2023-05-02T06:36:57;21.90;72.80
71672;DHT22;67659;45.554;11.812;2023-05-02T06:39:23;22.00;72.90
71672;DHT22;67659;45.554;11.812;2023-05-02T06:41:49;22.00;72.80
71672;DHT22;67659;45.554;11.812;2023-05-02T06:44:15;21.90;72.90
71672;DHT22;67659;45.554;11.812;2023-05-02T06:46:42;21.90;72.80
71672;DHT22;67659;45.554;11.812;2023-05-02T06:49:11;22.00;72.70
71672;DHT22;67659;45.554;11.812;2023-05-02T06:51:37;22.00;72.90
71672;DHT22;67659;45.554;11.812;2023-05-02T06:54:02;21.90;72.90
71672;DHT22;67659;45.554;11.812;2023-05-02T06:56:28;21.90;73.00
71672;DHT22;67659;45.554;11.812;2023-05-02T06:58:54;22.00;72.80
71672;DHT22;67659;45.554;11.812;2023-05-02T07:01:20;22.00;72.90
71672;DHT22;67659;45.554;11.812;2023-05-02T07:03:46;22.00;72.90
71672;DHT22;67659;45.554;11.812;2023-05-02T07:06:12;21.90;72.90
71672;DHT22;67659;45.554;11.812;2023-05-02T07:08:37;21.90;72.80
71672;DHT22;67659;45.554;11.812;2023-05-02T07:11:03;21.90;72.90
71672;DHT22;67659;45.554;11.812;2023-05-02T07:13:29;22.00;72.90
71672;DHT22;67659;45.554;11.812;2023-05-02T07:15:55;21.90;72.80
71672;DHT22;67659;45.554;11.812;2023-05-02T07:20:57;21.90;72.80
71672;DHT22;67659;45.554;11.812;2023-05-02T07:23:22;21.90;72.80
71672;DHT22;67659;45.554;11.812;2023-05-02T07:25:49;22.00;72.90
71672;DHT22;67659;45.554;11.812;2023-05-02T07:28:15;22.00;72.90
71672;DHT22;67659;45.554;11.812;2023-05-02T07:30:41;21.90;72.90
71672;DHT22;67659;45.554;11.812;2023-05-02T07:33:07;21.90;72.80
71672;DHT22;67659;45.554;11.812;2023-05-02T07:35:33;21.90;72.90
71672;DHT22;67659;45.554;11.812;2023-05-02T07:37:58;21.90;72.70
71672;DHT22;67659;45.554;11.812;2023-05-02T07:40:24;21.90;73.00
71672;DHT22;67659;45.554;11.812;2023-05-02T07:42:50;21.90;73.10
71672;DHT22;67659;45.554;11.812;2023-05-02T07:45:16;22.00;73.00
71672;DHT22;67659;45.554;11.812;2023-05-02T07:47:42;21.90;72.90
71672;DHT22;67659;45.554;11.812;2023-05-02T07:50:08;21.90;73.00
71672;DHT22;67659;45.554;11.812;2023-05-02T07:52:34;21.90;72.90
71672;DHT22;67659;45.554;11.812;2023-05-02T07:55:00;22.00;72.90
71672;DHT22;67659;45.554;11.812;2023-05-02T07:57:25;21.90;72.80
71672;DHT22;67659;45.554;11.812;2023-05-02T07:59:51;21.90;72.90
71672;DHT22;67659;45.554;11.812;2023-05-02T08:02:20;21.90;72.80
71672;DHT22;67659;45.554;11.812;2023-05-02T08:04:48;21.90;72.90
71672;DHT22;67659;45.554;11.812;2023-05-02T08:07:15;21.90;72.90
71672;DHT22;67659;45.554;11.812;2023-05-02T08:09:41;21.90;72.90
71672;DHT22;67659;45.554;11.812;2023-05-02T08:12:07;21.90;73.00
71672;DHT22;67659;45.554;11.812;2023-05-02T08:14:33;21.90;72.80
71672;DHT22;67659;45.554;11.812;2023-05-02T08:16:59;21.90;73.00
71672;DHT22;67659;45.554;11.812;2023-05-02T08:19:25;21.90;72.80
71672;DHT22;67659;45.554;11.812;2023-05-02T08:21:53;21.90;72.90
71672;DHT22;67659;45.554;11.812;2023-05-02T08:24:19;21.90;72.80
71672;DHT22;67659;45.554;11.812;2023-05-02T08:26:45;21.90;72.90
71672;DHT22;67659;45.554;11.812;2023-05-02T08:29:11;21.90;72.80
71672;DHT22;67659;45.554;11.812;2023-05-02T08:31:39;21.90;72.80
71672;DHT22;67659;45.554;11.812;2023-05-02T08:34:05;21.80;72.90
71672;DHT22;67659;45.554;11.812;2023-05-02T08:36:31;21.90;72.80
71672;DHT22;67659;45.554;11.812;2023-05-02T08:38:57;21.90;73.10
71672;DHT22;67659;45.554;11.812;2023-05-02T08:41:23;21.90;73.00
71672;DHT22;67659;45.554;11.812;2023-05-02T08:43:49;21.90;72.70
71672;DHT22;67659;45.554;11.812;2023-05-02T08:46:19;21.90;72.80
71672;DHT22;67659;45.554;11.812;2023-05-02T08:48:49;21.90;73.10
71672;DHT22;67659;45.554;11.812;2023-05-02T08:51:16;21.90;72.80
71672;DHT22;67659;45.554;11.812;2023-05-02T08:53:44;22.00;72.90
71672;DHT22;67659;45.554;11.812;2023-05-02T08:56:14;21.90;72.90
71672;DHT22;67659;45.554;11.812;2023-05-02T08:58:40;21.90;72.70
71672;DHT22;67659;45.554;11.812;2023-05-02T09:01:14;21.90;73.00
71672;DHT22;67659;45.554;11.812;2023-05-02T09:03:42;21.90;72.80
71672;DHT22;67659;45.554;11.812;2023-05-02T09:06:15;21.80;72.70
71672;DHT22;67659;45.554;11.812;2023-05-02T09:08:43;21.90;72.90
71672;DHT22;67659;45.554;11.812;2023-05-02T09:11:10;21.90;72.80
71672;DHT22;67659;45.554;11.812;2023-05-02T09:13:39;21.90;72.70
71672;DHT22;67659;45.554;11.812;2023-05-02T09:16:12;21.90;72.70
71672;DHT22;67659;45.554;11.812;2023-05-02T09:18:47;21.90;73.00
71672;DHT22;67659;45.554;11.812;2023-05-02T09:21:16;21.90;73.10
71672;DHT22;67659;45.554;11.812;2023-05-02T09:23:46;22.00;73.10
71672;DHT22;67659;45.554;11.812;2023-05-02T09:26:17;21.90;72.90
71672;DHT22;67659;45.554;11.812;2023-05-02T09:28:47;21.90;73.00
71672;DHT22;67659;45.554;11.812;2023-05-02T09:31:16;21.90;73.10
71672;DHT22;67659;45.554;11.812;2023-05-02T09:33:43;21.90;73.00
71672;DHT22;67659;45.554;11.812;2023-05-02T09:36:12;21.90;72.90
71672;DHT22;67659;45.554;11.812;2023-05-02T09:38:42;22.00;72.90
71672;DHT22;67659;45.554;11.812;2023-05-02T09:41:08;21.90;72.70
71672;DHT22;67659;45.554;11.812;2023-05-02T09:43:38;21.90;72.80
71672;DHT22;67659;45.554;11.812;2023-05-02T09:46:09;21.90;72.80
71672;DHT22;67659;45.554;11.812;2023-05-02T09:48:54;21.90;73.00
71672;DHT22;67659;45.554;11.812;2023-05-02T09:51:22;21.90;72.90
71672;DHT22;67659;45.554;11.812;2023-05-02T09:53:49;22.00;72.90
71672;DHT22;67659;45.554;11.812;2023-05-02T09:56:16;21.90;72.80
71672;DHT22;67659;45.554;11.812;2023-05-02T09:58:42;21.90;72.90
71672;DHT22;67659;45.554;11.812;2023-05-02T10:01:14;21.90;73.00
71672;DHT22;67659;45.554;11.812;2023-05-02T10:03:41;21.90;72.90
71672;DHT22;67659;45.554;11.812;2023-05-02T10:06:11;21.90;72.90
71672;DHT22;67659;45.554;11.812;2023-05-02T10:08:38;22.00;73.10
71672;DHT22;67659;45.554;11.812;2023-05-02T10:11:07;21.90;73.20
71672;DHT22;67659;45.554;11.812;2023-05-02T10:13:36;21.90;73.10
71672;DHT22;67659;45.554;11.812;2023-05-02T10:16:05;22.00;72.90
71672;DHT22;67659;45.554;11.812;2023-05-02T10:18:42;21.90;73.00
71672;DHT22;67659;45.554;11.812;2023-05-02T10:21:11;22.00;72.80
71672;DHT22;67659;45.554;11.812;2023-05-02T10:23:41;21.90;72.80
71672;DHT22;67659;45.554;11.812;2023-05-02T10:26:15;22.00;73.30
71672;DHT22;67659;45.554;11.812;2023-05-02T10:28:42;22.00;72.80
71672;DHT22;67659;45.554;11.812;2023-05-02T10:31:09;22.00;73.10
71672;DHT22;67659;45.554;11.812;2023-05-02T10:33:37;21.90;73.00
71672;DHT22;67659;45.554;11.812;2023-05-02T10:36:04;21.90;73.30
71672;DHT22;67659;45.554;11.812;2023-05-02T10:38:32;21.90;73.10
71672;DHT22;67659;45.554;11.812;2023-05-02T10:41:02;21.90;73.10
71672;DHT22;67659;45.554;11.812;2023-05-02T10:43:33;21.90;73.00
71672;DHT22;67659;45.554;11.812;2023-05-02T10:45:59;22.00;73.10
71672;DHT22;67659;45.554;11.812;2023-05-02T10:48:28;21.90;73.00
71672;DHT22;67659;45.554;11.812;2023-05-02T10:51:00;21.90;72.90
71672;DHT22;67659;45.554;11.812;2023-05-02T10:53:33;22.00;73.20
71672;DHT22;67659;45.554;11.812;2023-05-02T10:56:15;22.00;73.20
71672;DHT22;67659;45.554;11.812;2023-05-02T10:58:44;21.90;73.20
71672;DHT22;67659;45.554;11.812;2023-05-02T11:01:30;22.00;72.90
71672;DHT22;67659;45.554;11.812;2023-05-02T11:04:08;22.00;73.30
71672;DHT22;67659;45.554;11.812;2023-05-02T11:09:44;21.90;73.30
71672;DHT22;67659;45.554;11.812;2023-05-02T11:15:10;21.90;73.10
71672;DHT22;67659;45.554;11.812;2023-05-02T11:20:22;22.00;73.10
71672;DHT22;67659;45.554;11.812;2023-05-02T11:22:49;21.90;73.10
71672;DHT22;67659;45.554;11.812;2023-05-02T11:25:30;21.90;73.20
71672;DHT22;67659;45.554;11.812;2023-05-02T11:28:00;21.90;73.20
71672;DHT22;67659;45.554;11.812;2023-05-02T11:30:37;21.90;73.50
71672;DHT22;67659;45.554;11.812;2023-05-02T11:33:12;22.00;73.40
71672;DHT22;67659;45.554;11.812;2023-05-02T11:35:42;22.00;73.50
71672;DHT22;67659;45.554;11.812;2023-05-02T11:38:13;21.90;73.40
71672;DHT22;67659;45.554;11.812;2023-05-02T11:40:39;21.90;73.60
71672;DHT22;67659;45.554;11.812;2023-05-02T11:43:16;21.90;73.80
71672;DHT22;67659;45.554;11.812;2023-05-02T11:45:42;21.90;73.70
71672;DHT22;67659;45.554;11.812;2023-05-02T11:48:19;21.90;73.70
71672;DHT22;67659;45.554;11.812;2023-05-02T11:50:51;21.90;73.70
71672;DHT22;67659;45.554;11.812;2023-05-02T11:53:21;21.90;73.60
71672;DHT22;67659;45.554;11.812;2023-05-02T11:55:49;22.00;73.90
71672;DHT22;67659;45.554;11.812;2023-05-02T11:58:18;21.90;73.50
71672;DHT22;67659;45.554;11.812;2023-05-02T12:00:45;21.90;73.60
71672;DHT22;67659;45.554;11.812;2023-05-02T12:03:30;21.90;73.90
71672;DHT22;67659;45.554;11.812;2023-05-02T12:06:00;21.90;73.70
71672;DHT22;67659;45.554;11.812;2023-05-02T12:08:34;21.90;73.60
71672;DHT22;67659;45.554;11.812;2023-05-02T12:11:00;21.90;73.60
71672;DHT22;67659;45.554;11.812;2023-05-02T12:13:26;21.90;73.60
71672;DHT22;67659;45.554;11.812;2023-05-02T12:15:53;21.90;73.60
71672;DHT22;67659;45.554;11.812;2023-05-02T12:18:21;21.90;73.70
71672;DHT22;67659;45.554;11.812;2023-05-02T12:20:50;21.90;73.80
71672;DHT22;67659;45.554;11.812;2023-05-02T12:23:17;21.90;73.60
71672;DHT22;67659;45.554;11.812;2023-05-02T12:25:44;21.90;73.60
71672;DHT22;67659;45.554;11.812;2023-05-02T12:28:10;21.90;73.70
71672;DHT22;67659;45.554;11.812;2023-05-02T12:30:37;22.00;73.80
71672;DHT22;67659;45.554;11.812;2023-05-02T12:33:04;21.90;73.70
71672;DHT22;67659;45.554;11.812;2023-05-02T12:35:32;22.00;73.60
71672;DHT22;67659;45.554;11.812;2023-05-02T12:38:10;21.90;74.00
71672;DHT22;67659;45.554;11.812;2023-05-02T12:40:36;21.90;73.90
71672;DHT22;67659;45.554;11.812;2023-05-02T12:43:03;21.90;73.80
71672;DHT22;67659;45.554;11.812;2023-05-02T12:45:32;21.80;74.20
71672;DHT22;67659;45.554;11.812;2023-05-02T12:48:01;21.90;73.90
71672;DHT22;67659;45.554;11.812;2023-05-02T12:50:36;21.90;74.10
71672;DHT22;67659;45.554;11.812;2023-05-02T12:53:02;22.00;74.20
71672;DHT22;67659;45.554;11.812;2023-05-02T12:55:28;21.90;74.20
71672;DHT22;67659;45.554;11.812;2023-05-02T12:58:07;21.90;74.10
71672;DHT22;67659;45.554;11.812;2023-05-02T13:00:37;22.00;74.40
71672;DHT22;67659;45.554;11.812;2023-05-02T13:03:04;21.90;74.10
71672;DHT22;67659;45.554;11.812;2023-05-02T13:05:30;22.00;74.40
71672;DHT22;67659;45.554;11.812;2023-05-02T13:07:57;21.90;74.30
71672;DHT22;67659;45.554;11.812;2023-05-02T13:10:24;21.90;74.30
71672;DHT22;67659;45.554;11.812;2023-05-02T13:12:51;21.90;74.40
71672;DHT22;67659;45.554;11.812;2023-05-02T13:15:17;22.00;74.20
71672;DHT22;67659;45.554;11.812;2023-05-02T13:17:44;21.90;74.40
71672;DHT22;67659;45.554;11.812;2023-05-02T13:20:11;21.90;74.40
71672;DHT22;67659;45.554;11.812;2023-05-02T13:22:37;21.90;74.20
71672;DHT22;67659;45.554;11.812;2023-05-02T13:25:04;21.90;74.40
71672;DHT22;67659;45.554;11.812;2023-05-02T13:27:30;22.00;74.30
71672;DHT22;67659;45.554;11.812;2023-05-02T13:29:56;21.80;74.60
71672;DHT22;67659;45.554;11.812;2023-05-02T13:32:22;21.80;74.50
71672;DHT22;67659;45.554;11.812;2023-05-02T13:34:49;22.00;74.30
71672;DHT22;67659;45.554;11.812;2023-05-02T13:37:15;21.90;74.60
71672;DHT22;67659;45.554;11.812;2023-05-02T13:39:41;22.00;74.40
71672;DHT22;67659;45.554;11.812;2023-05-02T13:42:06;21.80;74.50
71672;DHT22;67659;45.554;11.812;2023-05-02T13:44:32;21.90;74.50
71672;DHT22;67659;45.554;11.812;2023-05-02T13:46:58;21.90;74.70
71672;DHT22;67659;45.554;11.812;2023-05-02T13:49:24;21.90;74.60
71672;DHT22;67659;45.554;11.812;2023-05-02T13:51:50;21.90;74.60
71672;DHT22;67659;45.554;11.812;2023-05-02T13:54:16;21.90;74.60
71672;DHT22;67659;45.554;11.812;2023-05-02T13:56:42;21.90;74.50
71672;DHT22;67659;45.554;11.812;2023-05-02T13:59:08;21.90;74.50
71672;DHT22;67659;45.554;11.812;2023-05-02T14:01:34;21.90;74.60
71672;DHT22;67659;45.554;11.812;2023-05-02T14:04:00;21.90;74.70
71672;DHT22;67659;45.554;11.812;2023-05-02T14:06:31;21.80;74.70
71672;DHT22;67659;45.554;11.812;2023-05-02T14:08:57;21.90;74.60
71672;DHT22;67659;45.554;11.812;2023-05-02T14:11:23;21.90;74.90
71672;DHT22;67659;45.554;11.812;2023-05-02T14:13:49;21.90;74.90
71672;DHT22;67659;45.554;11.812;2023-05-02T14:16:15;21.90;74.80
71672;DHT22;67659;45.554;11.812;2023-05-02T14:18:41;21.90;75.00
71672;DHT22;67659;45.554;11.812;2023-05-02T14:21:10;21.90;74.70
71672;DHT22;67659;45.554;11.812;2023-05-02T14:23:36;22.00;74.90
71672;DHT22;67659;45.554;11.812;2023-05-02T14:26:02;21.90;74.90
71672;DHT22;67659;45.554;11.812;2023-05-02T14:28:28;21.80;74.90
71672;DHT22;67659;45.554;11.812;2023-05-02T14:30:54;21.90;75.10
71672;DHT22;67659;45.554;11.812;2023-05-02T14:33:20;21.90;75.10
71672;DHT22;67659;45.554;11.812;2023-05-02T14:35:47;21.80;74.70
71672;DHT22;67659;45.554;11.812;2023-05-02T14:38:13;21.90;74.90
71672;DHT22;67659;45.554;11.812;2023-05-02T14:40:39;22.00;75.10
71672;DHT22;67659;45.554;11.812;2023-05-02T14:43:05;21.90;75.10
71672;DHT22;67659;45.554;11.812;2023-05-02T14:45:31;21.90;75.00
71672;DHT22;67659;45.554;11.812;2023-05-02T14:47:57;21.90;74.90
71672;DHT22;67659;45.554;11.812;2023-05-02T14:50:23;21.90;75.20
71672;DHT22;67659;45.554;11.812;2023-05-02T14:52:49;21.90;75.10
71672;DHT22;67659;45.554;11.812;2023-05-02T14:55:15;21.90;75.20
71672;DHT22;67659;45.554;11.812;2023-05-02T14:57:41;21.90;75.00
71672;DHT22;67659;45.554;11.812;2023-05-02T15:00:07;21.90;75.10
71672;DHT22;67659;45.554;11.812;2023-05-02T15:02:34;21.90;75.10
71672;DHT22;67659;45.554;11.812;2023-05-02T15:05:02;21.90;75.30
71672;DHT22;67659;45.554;11.812;2023-05-02T15:07:30;21.90;75.00
71672;DHT22;67659;45.554;11.812;2023-05-02T15:09:56;21.90;75.10
71672;DHT22;67659;45.554;11.812;2023-05-02T15:12:21;21.90;75.20
71672;DHT22;67659;45.554;11.812;2023-05-02T15:14:47;21.90;75.30
71672;DHT22;67659;45.554;11.812;2023-05-02T15:17:13;21.90;75.10
71672;DHT22;67659;45.554;11.812;2023-05-02T15:19:40;21.90;75.30
71672;DHT22;67659;45.554;11.812;2023-05-02T15:22:06;21.90;75.00
71672;DHT22;67659;45.554;11.812;2023-05-02T15:24:31;21.90;75.10
71672;DHT22;67659;45.554;11.812;2023-05-02T15:26:57;21.90;75.10
71672;DHT22;67659;45.554;11.812;2023-05-02T15:29:23;21.90;75.10
71672;DHT22;67659;45.554;11.812;2023-05-02T15:31:49;21.90;74.90
71672;DHT22;67659;45.554;11.812;2023-05-02T15:34:15;21.90;75.00
71672;DHT22;67659;45.554;11.812;2023-05-02T15:36:41;21.90;75.10
71672;DHT22;67659;45.554;11.812;2023-05-02T15:39:07;21.90;75.10
71672;DHT22;67659;45.554;11.812;2023-05-02T15:41:33;21.90;75.00
71672;DHT22;67659;45.554;11.812;2023-05-02T15:43:59;22.00;75.00
71672;DHT22;67659;45.554;11.812;2023-05-02T15:46:25;21.90;74.90